Hubbard, Minnesota
Current Conditions -  °F | °C
As of 2:03 AM on Friday 19 Dec 2014 (Local Time) from KPKD Reporting Station
Overcast Overcast  
Wind Chill:   Ceiling: 1300
Heat Index: 19°   Visibility: 9mi
Dew Point: 15°   Wind: 9mph
Humidity: 85%   Direction: 140°SE
Pressure: 30.16"   Gusts: NA
Location:  46.9966°N, 95.0029°W
Report Text: KPKD 190803Z AUTO 14008KT 9SM BKN013 OVC017 M07/M09 A3016 RMK AO2 T10721094
Loading
Personal Weather Stations






























Interactive Weather Map New forecast layout! Learn more

10-Day Weather Forecast

Advertisements
Track Severe Weather on mobile